createdAt,value
2019-04-11T18:56:16.661Z,16.17
2019-04-11T18:58:46.043Z,14.13
2019-04-11T19:01:18.717Z,13.57
2019-04-11T19:03:48.341Z,11.80
2019-04-11T19:06:27.453Z,15.50
2019-04-11T19:08:49.496Z,16.47
2019-04-11T19:11:18.850Z,19.43
2019-04-11T19:13:48.717Z,15.23
2019-04-11T19:16:18.566Z,11.50
2019-04-11T19:18:48.498Z,16.53
2019-04-11T19:21:21.089Z,10.23
2019-04-11T19:23:49.121Z,14.87
2019-04-11T19:26:18.691Z,12.40
2019-04-11T19:28:49.322Z,9.00
2019-04-11T19:31:18.844Z,8.73
2019-04-11T19:33:48.200Z,8.40
2019-04-11T19:36:17.538Z,6.87
2019-04-11T19:38:47.176Z,8.73
2019-04-11T19:41:18.045Z,5.50
2019-04-11T19:43:49.194Z,5.93
2019-04-11T19:46:20.344Z,6.73
2019-04-11T19:48:49.889Z,9.07
2019-04-11T19:51:19.239Z,11.20
2019-04-11T19:53:48.598Z,13.27
2019-04-11T19:56:45.773Z,12.43
2019-04-11T19:59:15.170Z,11.83
2019-04-11T20:01:44.637Z,10.60
2019-04-11T20:04:14.065Z,13.53
2019-04-11T20:06:43.737Z,15.17
2019-04-11T20:09:13.220Z,9.87
2019-04-11T20:11:44.791Z,11.90
2019-04-11T20:14:13.694Z,12.87
2019-04-11T20:16:48.177Z,14.47
2019-04-11T20:19:14.157Z,16.90
2019-04-11T20:21:43.569Z,13.27
2019-04-11T20:24:14.422Z,13.87
2019-04-11T20:26:44.076Z,15.47
2019-04-11T20:29:13.480Z,13.03
2019-04-11T20:31:42.852Z,11.17
2019-04-11T20:34:12.236Z,13.43
2019-04-11T20:36:41.880Z,13.23
2019-04-11T20:39:14.944Z,12.27
2019-04-11T20:41:42.579Z,13.73
2019-04-11T20:44:12.131Z,15.63
2019-04-11T20:46:42.362Z,13.73
2019-04-11T20:49:11.855Z,13.60
2019-04-11T20:51:41.340Z,15.63
2019-04-11T20:54:11.175Z,20.70
2019-04-11T20:56:41.017Z,15.43
2019-04-11T20:59:11.009Z,18.53
2019-04-11T21:01:40.416Z,19.00
2019-04-11T21:04:09.891Z,21.17
2019-04-11T21:06:41.089Z,22.23
2019-04-11T21:09:12.590Z,14.23
2019-04-11T21:11:41.997Z,15.97
2019-04-11T21:14:11.756Z,12.13
2019-04-11T21:16:41.119Z,13.90
2019-04-11T21:19:10.495Z,13.13
2019-04-11T21:21:39.870Z,12.60
2019-04-11T21:24:09.260Z,13.47
2019-04-11T21:26:38.607Z,13.53
2019-04-11T21:29:07.964Z,14.53
2019-04-11T21:31:37.331Z,16.63
2019-04-11T21:34:06.735Z,18.00
2019-04-11T21:36:36.257Z,17.27
2019-04-11T21:39:07.638Z,17.80
2019-04-11T21:41:37.002Z,19.37
2019-04-11T21:44:07.033Z,17.63
2019-04-11T21:46:38.152Z,19.30
2019-04-11T21:49:07.523Z,20.70
2019-04-11T21:51:41.451Z,21.07
2019-04-11T21:54:07.968Z,21.63
2019-04-11T21:56:37.400Z,22.03
2019-04-11T21:59:06.807Z,27.00
2019-04-11T22:01:39.667Z,23.27
2019-04-11T22:04:09.327Z,19.73
2019-04-11T22:06:38.670Z,22.57
2019-04-11T22:09:09.474Z,31.60
2019-04-11T22:11:39.027Z,25.63
2019-04-11T22:14:11.001Z,25.97
2019-04-11T22:16:44.272Z,20.43
2019-04-11T22:19:14.005Z,20.30
2019-04-11T22:21:45.046Z,23.60
2019-04-11T22:24:12.915Z,24.93
2019-04-11T22:26:42.297Z,25.60
2019-04-11T22:29:11.667Z,21.57
2019-04-11T22:31:41.025Z,24.53
2019-04-11T22:34:21.516Z,23.70
2019-04-11T22:36:50.977Z,27.73
2019-04-11T22:39:20.399Z,22.70
2019-04-11T22:41:49.756Z,29.33
2019-04-11T22:44:19.087Z,23.27
2019-04-11T22:46:48.477Z,25.13
2019-04-11T22:49:17.850Z,23.20
2019-04-11T22:51:47.225Z,26.63
2019-04-11T22:54:16.623Z,31.53
2019-04-11T22:56:45.986Z,31.63
2019-04-11T22:59:15.331Z,26.63
2019-04-11T23:01:47.086Z,30.37
2019-04-11T23:04:17.027Z,29.07
2019-04-11T23:06:47.799Z,27.20
2019-04-11T23:09:19.513Z,32.67
2019-04-11T23:11:48.462Z,37.73
2019-04-11T23:14:17.839Z,33.43
2019-04-11T23:16:47.180Z,30.10
2019-04-11T23:19:16.585Z,29.43
2019-04-11T23:21:45.934Z,24.90
2019-04-11T23:24:15.320Z,26.33
2019-04-11T23:26:44.664Z,32.03
2019-04-11T23:29:16.164Z,27.30
2019-04-11T23:31:45.127Z,26.10
2019-04-11T23:34:14.492Z,28.87
2019-04-11T23:36:43.855Z,29.17
2019-04-11T23:39:13.256Z,27.23
2019-04-11T23:41:42.626Z,28.27
2019-04-11T23:44:11.980Z,27.90
2019-04-11T23:46:41.351Z,33.67
2019-04-11T23:49:10.700Z,29.87
2019-04-11T23:51:40.063Z,35.67
2019-04-11T23:54:09.413Z,35.60
2019-04-11T23:56:38.811Z,39.97
2019-04-11T23:59:08.202Z,37.90
